sensor_id;sensor_type;location;lat;lon;timestamp;temperature;humidity
29849;DHT22;16728;50.832;5.590;2023-05-14T00:01:16;14.80;99.90
29849;DHT22;16728;50.832;5.590;2023-05-14T00:04:18;14.80;99.90
29849;DHT22;16728;50.832;5.590;2023-05-14T00:07:20;14.90;99.90
29849;DHT22;16728;50.832;5.590;2023-05-14T00:10:22;14.70;99.90
29849;DHT22;16728;50.832;5.590;2023-05-14T00:13:25;14.60;99.90
29849;DHT22;16728;50.832;5.590;2023-05-14T00:16:27;14.60;99.90
29849;DHT22;16728;50.832;5.590;2023-05-14T00:19:29;14.60;99.90
29849;DHT22;16728;50.832;5.590;2023-05-14T00:22:38;14.60;99.90
29849;DHT22;16728;50.832;5.590;2023-05-14T00:25:40;14.60;99.90
29849;DHT22;16728;50.832;5.590;2023-05-14T00:28:44;14.50;99.90
29849;DHT22;16728;50.832;5.590;2023-05-14T00:31:45;14.50;99.90
29849;DHT22;16728;50.832;5.590;2023-05-14T00:34:52;14.60;99.90
29849;DHT22;16728;50.832;5.590;2023-05-14T00:37:54;14.60;99.90
29849;DHT22;16728;50.832;5.590;2023-05-14T00:40:56;14.50;99.90
29849;DHT22;16728;50.832;5.590;2023-05-14T00:43:58;14.40;99.90
29849;DHT22;16728;50.832;5.590;2023-05-14T00:47:00;14.50;99.90
29849;DHT22;16728;50.832;5.590;2023-05-14T00:50:03;14.40;99.90
29849;DHT22;16728;50.832;5.590;2023-05-14T00:53:05;14.30;99.90
29849;DHT22;16728;50.832;5.590;2023-05-14T00:56:11;14.20;99.90
29849;DHT22;16728;50.832;5.590;2023-05-14T00:59:14;14.20;99.90
29849;DHT22;16728;50.832;5.590;2023-05-14T01:02:16;14.10;99.90
29849;DHT22;16728;50.832;5.590;2023-05-14T01:05:25;14.10;99.90
29849;DHT22;16728;50.832;5.590;2023-05-14T01:15:27;14.00;99.90
29849;DHT22;16728;50.832;5.590;2023-05-14T01:18:31;14.00;99.90
29849;DHT22;16728;50.832;5.590;2023-05-14T01:21:38;13.90;99.90
29849;DHT22;16728;50.832;5.590;2023-05-14T01:24:43;14.00;99.90
29849;DHT22;16728;50.832;5.590;2023-05-14T01:28:05;13.90;99.90
29849;DHT22;16728;50.832;5.590;2023-05-14T01:31:16;14.00;99.90
29849;DHT22;16728;50.832;5.590;2023-05-14T01:34:21;13.80;99.90
29849;DHT22;16728;50.832;5.590;2023-05-14T01:37:24;13.50;99.90
29849;DHT22;16728;50.832;5.590;2023-05-14T01:40:28;13.40;99.90
29849;DHT22;16728;50.832;5.590;2023-05-14T01:43:33;13.60;99.90
29849;DHT22;16728;50.832;5.590;2023-05-14T01:46:36;13.70;99.90
29849;DHT22;16728;50.832;5.590;2023-05-14T01:49:39;13.60;99.90
29849;DHT22;16728;50.832;5.590;2023-05-14T01:52:41;13.60;99.90
29849;DHT22;16728;50.832;5.590;2023-05-14T01:55:45;13.70;99.90
29849;DHT22;16728;50.832;5.590;2023-05-14T01:58:47;13.60;99.90
29849;DHT22;16728;50.832;5.590;2023-05-14T02:01:54;13.40;99.90
29849;DHT22;16728;50.832;5.590;2023-05-14T02:04:56;13.50;99.90
29849;DHT22;16728;50.832;5.590;2023-05-14T02:07:58;13.50;99.90
29849;DHT22;16728;50.832;5.590;2023-05-14T02:11:00;13.50;99.90
29849;DHT22;16728;50.832;5.590;2023-05-14T02:14:02;13.40;99.90
29849;DHT22;16728;50.832;5.590;2023-05-14T02:17:04;13.50;99.90
29849;DHT22;16728;50.832;5.590;2023-05-14T02:20:11;13.40;99.90
29849;DHT22;16728;50.832;5.590;2023-05-14T02:23:13;13.50;99.90
29849;DHT22;16728;50.832;5.590;2023-05-14T02:26:15;13.50;99.90
29849;DHT22;16728;50.832;5.590;2023-05-14T02:29:17;13.50;99.90
29849;DHT22;16728;50.832;5.590;2023-05-14T02:32:20;13.40;99.90
29849;DHT22;16728;50.832;5.590;2023-05-14T02:35:22;13.20;99.90
29849;DHT22;16728;50.832;5.590;2023-05-14T02:38:25;13.30;99.90
29849;DHT22;16728;50.832;5.590;2023-05-14T02:41:27;13.20;99.90
29849;DHT22;16728;50.832;5.590;2023-05-14T02:44:29;13.20;99.90
29849;DHT22;16728;50.832;5.590;2023-05-14T02:47:32;13.30;99.90
29849;DHT22;16728;50.832;5.590;2023-05-14T02:50:38;13.20;99.90
29849;DHT22;16728;50.832;5.590;2023-05-14T02:53:40;13.20;99.90
29849;DHT22;16728;50.832;5.590;2023-05-14T02:56:42;13.20;99.90
29849;DHT22;16728;50.832;5.590;2023-05-14T02:59:43;13.10;99.90
29849;DHT22;16728;50.832;5.590;2023-05-14T03:02:47;13.10;99.90
29849;DHT22;16728;50.832;5.590;2023-05-14T03:05:49;13.10;99.90
29849;DHT22;16728;50.832;5.590;2023-05-14T03:08:54;13.10;99.90
29849;DHT22;16728;50.832;5.590;2023-05-14T03:11:55;13.00;99.90
29849;DHT22;16728;50.832;5.590;2023-05-14T03:14:57;13.00;99.90
29849;DHT22;16728;50.832;5.590;2023-05-14T03:17:59;13.00;99.90
29849;DHT22;16728;50.832;5.590;2023-05-14T03:21:02;12.90;99.90
29849;DHT22;16728;50.832;5.590;2023-05-14T03:24:04;13.00;99.90
29849;DHT22;16728;50.832;5.590;2023-05-14T03:27:07;12.90;99.90
29849;DHT22;16728;50.832;5.590;2023-05-14T03:30:09;13.00;99.90
29849;DHT22;16728;50.832;5.590;2023-05-14T03:33:12;13.00;99.90
29849;DHT22;16728;50.832;5.590;2023-05-14T03:36:14;13.00;99.90
29849;DHT22;16728;50.832;5.590;2023-05-14T03:39:17;12.90;99.90
29849;DHT22;16728;50.832;5.590;2023-05-14T03:42:21;13.00;99.90
29849;DHT22;16728;50.832;5.590;2023-05-14T03:45:25;12.90;99.90
29849;DHT22;16728;50.832;5.590;2023-05-14T03:48:35;12.90;99.90
29849;DHT22;16728;50.832;5.590;2023-05-14T03:51:37;13.00;99.90
29849;DHT22;16728;50.832;5.590;2023-05-14T03:54:39;12.80;99.90
29849;DHT22;16728;50.832;5.590;2023-05-14T03:57:41;12.80;99.90
29849;DHT22;16728;50.832;5.590;2023-05-14T04:00:43;12.80;99.90
29849;DHT22;16728;50.832;5.590;2023-05-14T04:03:46;12.70;99.90
29849;DHT22;16728;50.832;5.590;2023-05-14T04:06:48;12.70;99.90
29849;DHT22;16728;50.832;5.590;2023-05-14T04:09:51;12.70;99.90
29849;DHT22;16728;50.832;5.590;2023-05-14T04:12:53;12.70;99.90
29849;DHT22;16728;50.832;5.590;2023-05-14T04:16:00;12.70;99.90
29849;DHT22;16728;50.832;5.590;2023-05-14T04:19:02;12.70;99.90
29849;DHT22;16728;50.832;5.590;2023-05-14T04:22:06;12.80;99.90
29849;DHT22;16728;50.832;5.590;2023-05-14T04:25:08;12.70;99.90
29849;DHT22;16728;50.832;5.590;2023-05-14T04:28:10;12.80;99.90
29849;DHT22;16728;50.832;5.590;2023-05-14T04:31:12;12.80;99.90
29849;DHT22;16728;50.832;5.590;2023-05-14T04:34:15;12.80;99.90
29849;DHT22;16728;50.832;5.590;2023-05-14T04:37:17;12.80;99.90
29849;DHT22;16728;50.832;5.590;2023-05-14T04:40:19;12.80;99.90
29849;DHT22;16728;50.832;5.590;2023-05-14T04:43:21;12.70;99.90
29849;DHT22;16728;50.832;5.590;2023-05-14T04:46:23;12.60;99.90
29849;DHT22;16728;50.832;5.590;2023-05-14T04:49:25;12.60;99.90
29849;DHT22;16728;50.832;5.590;2023-05-14T04:52:27;12.60;99.90
29849;DHT22;16728;50.832;5.590;2023-05-14T04:55:29;12.60;99.90
29849;DHT22;16728;50.832;5.590;2023-05-14T04:58:31;12.50;99.90
29849;DHT22;16728;50.832;5.590;2023-05-14T05:01:35;12.50;99.90
29849;DHT22;16728;50.832;5.590;2023-05-14T05:04:38;12.50;99.90
29849;DHT22;16728;50.832;5.590;2023-05-14T05:07:39;12.60;99.90
29849;DHT22;16728;50.832;5.590;2023-05-14T05:10:44;12.60;99.90
29849;DHT22;16728;50.832;5.590;2023-05-14T05:13:45;12.60;99.90
29849;DHT22;16728;50.832;5.590;2023-05-14T05:16:47;12.60;99.90
29849;DHT22;16728;50.832;5.590;2023-05-14T05:19:55;12.60;99.90
29849;DHT22;16728;50.832;5.590;2023-05-14T05:22:57;12.60;99.90
29849;DHT22;16728;50.832;5.590;2023-05-14T05:26:00;12.70;99.90
29849;DHT22;16728;50.832;5.590;2023-05-14T05:29:03;12.70;99.90
29849;DHT22;16728;50.832;5.590;2023-05-14T05:32:06;12.80;99.90
29849;DHT22;16728;50.832;5.590;2023-05-14T05:35:10;12.90;99.90
29849;DHT22;16728;50.832;5.590;2023-05-14T05:38:12;12.90;99.90
29849;DHT22;16728;50.832;5.590;2023-05-14T05:41:18;12.90;99.90
29849;DHT22;16728;50.832;5.590;2023-05-14T05:44:20;12.90;99.90
29849;DHT22;16728;50.832;5.590;2023-05-14T05:47:53;13.00;99.90
29849;DHT22;16728;50.832;5.590;2023-05-14T05:50:55;13.10;99.90
29849;DHT22;16728;50.832;5.590;2023-05-14T05:53:57;13.00;99.90
29849;DHT22;16728;50.832;5.590;2023-05-14T05:56:59;13.00;99.90
29849;DHT22;16728;50.832;5.590;2023-05-14T06:00:01;13.00;99.90
29849;DHT22;16728;50.832;5.590;2023-05-14T06:03:13;13.00;99.90
29849;DHT22;16728;50.832;5.590;2023-05-14T06:06:15;13.00;99.90
29849;DHT22;16728;50.832;5.590;2023-05-14T06:09:17;13.10;99.90
29849;DHT22;16728;50.832;5.590;2023-05-14T06:12:20;13.20;99.90
29849;DHT22;16728;50.832;5.590;2023-05-14T06:15:22;13.20;99.90
29849;DHT22;16728;50.832;5.590;2023-05-14T06:18:24;13.20;99.90
29849;DHT22;16728;50.832;5.590;2023-05-14T06:21:26;13.20;99.90
29849;DHT22;16728;50.832;5.590;2023-05-14T06:24:34;13.30;99.90
29849;DHT22;16728;50.832;5.590;2023-05-14T06:27:36;13.30;99.90
29849;DHT22;16728;50.832;5.590;2023-05-14T06:30:39;13.30;99.90
29849;DHT22;16728;50.832;5.590;2023-05-14T06:33:44;13.30;99.90
29849;DHT22;16728;50.832;5.590;2023-05-14T06:36:48;13.30;99.90
29849;DHT22;16728;50.832;5.590;2023-05-14T06:39:50;13.30;99.90
29849;DHT22;16728;50.832;5.590;2023-05-14T06:42:52;13.40;99.90
29849;DHT22;16728;50.832;5.590;2023-05-14T06:45:54;13.40;99.90
29849;DHT22;16728;50.832;5.590;2023-05-14T06:48:56;13.40;99.90
29849;DHT22;16728;50.832;5.590;2023-05-14T06:52:00;13.50;99.90
29849;DHT22;16728;50.832;5.590;2023-05-14T06:55:03;13.40;99.90
29849;DHT22;16728;50.832;5.590;2023-05-14T06:58:06;13.40;99.90
29849;DHT22;16728;50.832;5.590;2023-05-14T07:01:09;13.50;99.90
29849;DHT22;16728;50.832;5.590;2023-05-14T07:04:11;13.40;99.90
29849;DHT22;16728;50.832;5.590;2023-05-14T07:07:14;13.50;99.90
29849;DHT22;16728;50.832;5.590;2023-05-14T07:10:18;13.40;99.90
29849;DHT22;16728;50.832;5.590;2023-05-14T07:13:20;13.50;99.90
29849;DHT22;16728;50.832;5.590;2023-05-14T07:16:22;13.50;99.90
29849;DHT22;16728;50.832;5.590;2023-05-14T07:19:24;13.50;99.90
29849;DHT22;16728;50.832;5.590;2023-05-14T07:22:29;13.60;99.90
29849;DHT22;16728;50.832;5.590;2023-05-14T07:25:31;13.50;99.90
29849;DHT22;16728;50.832;5.590;2023-05-14T07:28:33;13.60;99.90
29849;DHT22;16728;50.832;5.590;2023-05-14T07:31:35;13.60;99.90
29849;DHT22;16728;50.832;5.590;2023-05-14T07:34:37;13.70;99.90
29849;DHT22;16728;50.832;5.590;2023-05-14T07:37:39;13.70;99.90
29849;DHT22;16728;50.832;5.590;2023-05-14T07:40:41;13.70;99.90
29849;DHT22;16728;50.832;5.590;2023-05-14T07:43:44;13.80;99.90
29849;DHT22;16728;50.832;5.590;2023-05-14T07:46:46;13.80;99.90
29849;DHT22;16728;50.832;5.590;2023-05-14T07:49:53;13.90;99.90
29849;DHT22;16728;50.832;5.590;2023-05-14T07:52:55;13.90;99.90
29849;DHT22;16728;50.832;5.590;2023-05-14T07:55:57;13.90;99.90
29849;DHT22;16728;50.832;5.590;2023-05-14T07:59:00;13.90;99.90
29849;DHT22;16728;50.832;5.590;2023-05-14T08:02:02;13.90;99.90
29849;DHT22;16728;50.832;5.590;2023-05-14T08:05:04;13.90;99.90
29849;DHT22;16728;50.832;5.590;2023-05-14T08:08:07;13.90;99.90
29849;DHT22;16728;50.832;5.590;2023-05-14T08:11:09;14.00;99.90
29849;DHT22;16728;50.832;5.590;2023-05-14T08:14:16;14.10;99.90
29849;DHT22;16728;50.832;5.590;2023-05-14T08:17:18;14.10;99.90
29849;DHT22;16728;50.832;5.590;2023-05-14T08:20:21;14.10;99.90
29849;DHT22;16728;50.832;5.590;2023-05-14T08:23:25;14.10;99.90
29849;DHT22;16728;50.832;5.590;2023-05-14T08:26:27;14.20;99.90
29849;DHT22;16728;50.832;5.590;2023-05-14T08:29:31;14.30;99.90
29849;DHT22;16728;50.832;5.590;2023-05-14T08:32:34;14.30;99.90
29849;DHT22;16728;50.832;5.590;2023-05-14T08:35:36;14.30;99.90
29849;DHT22;16728;50.832;5.590;2023-05-14T08:38:38;14.40;99.90
29849;DHT22;16728;50.832;5.590;2023-05-14T08:41:40;14.40;99.90
29849;DHT22;16728;50.832;5.590;2023-05-14T08:47:48;14.60;99.90
29849;DHT22;16728;50.832;5.590;2023-05-14T08:50:53;14.80;99.90
29849;DHT22;16728;50.832;5.590;2023-05-14T08:53:58;14.90;99.90
29849;DHT22;16728;50.832;5.590;2023-05-14T08:57:03;15.00;99.90
29849;DHT22;16728;50.832;5.590;2023-05-14T09:00:06;15.10;99.90
29849;DHT22;16728;50.832;5.590;2023-05-14T09:03:14;15.20;99.90
29849;DHT22;16728;50.832;5.590;2023-05-14T09:06:18;15.30;99.90
29849;DHT22;16728;50.832;5.590;2023-05-14T09:09:24;15.50;99.90
29849;DHT22;16728;50.832;5.590;2023-05-14T09:12:27;15.60;99.90
29849;DHT22;16728;50.832;5.590;2023-05-14T09:15:34;15.90;99.90
29849;DHT22;16728;50.832;5.590;2023-05-14T09:18:37;16.00;99.90
29849;DHT22;16728;50.832;5.590;2023-05-14T09:21:40;16.20;99.90
29849;DHT22;16728;50.832;5.590;2023-05-14T09:24:43;16.20;99.90
29849;DHT22;16728;50.832;5.590;2023-05-14T09:27:46;16.30;99.90
29849;DHT22;16728;50.832;5.590;2023-05-14T09:30:51;16.40;99.90
29849;DHT22;16728;50.832;5.590;2023-05-14T09:34:29;16.60;99.90
29849;DHT22;16728;50.832;5.590;2023-05-14T09:37:35;16.70;99.90
29849;DHT22;16728;50.832;5.590;2023-05-14T09:40:38;16.90;99.90
29849;DHT22;16728;50.832;5.590;2023-05-14T09:43:40;17.00;99.90
29849;DHT22;16728;50.832;5.590;2023-05-14T09:46:41;17.20;99.90
29849;DHT22;16728;50.832;5.590;2023-05-14T09:49:47;17.20;99.90
29849;DHT22;16728;50.832;5.590;2023-05-14T09:52:49;17.40;99.90
29849;DHT22;16728;50.832;5.590;2023-05-14T09:55:51;17.50;99.90
29849;DHT22;16728;50.832;5.590;2023-05-14T09:58:53;17.60;99.90
29849;DHT22;16728;50.832;5.590;2023-05-14T10:01:56;17.60;99.90
29849;DHT22;16728;50.832;5.590;2023-05-14T10:05:02;17.70;99.90
29849;DHT22;16728;50.832;5.590;2023-05-14T10:08:11;17.80;99.90
29849;DHT22;16728;50.832;5.590;2023-05-14T10:11:18;17.90;99.90
29849;DHT22;16728;50.832;5.590;2023-05-14T10:14:34;18.00;99.90
29849;DHT22;16728;50.832;5.590;2023-05-14T10:17:40;18.10;99.90
29849;DHT22;16728;50.832;5.590;2023-05-14T10:20:47;18.10;99.90
29849;DHT22;16728;50.832;5.590;2023-05-14T10:23:53;18.20;99.90
29849;DHT22;16728;50.832;5.590;2023-05-14T10:26:57;18.30;99.90
29849;DHT22;16728;50.832;5.590;2023-05-14T10:30:05;18.30;99.90
29849;DHT22;16728;50.832;5.590;2023-05-14T10:33:12;18.40;99.90
29849;DHT22;16728;50.832;5.590;2023-05-14T10:36:17;18.40;99.90
29849;DHT22;16728;50.832;5.590;2023-05-14T10:39:19;18.40;99.90
29849;DHT22;16728;50.832;5.590;2023-05-14T10:42:27;18.60;99.90
29849;DHT22;16728;50.832;5.590;2023-05-14T10:45:30;18.60;99.90
29849;DHT22;16728;50.832;5.590;2023-05-14T10:48:42;18.60;99.90
29849;DHT22;16728;50.832;5.590;2023-05-14T10:51:47;18.60;99.90
29849;DHT22;16728;50.832;5.590;2023-05-14T10:54:55;18.60;99.90
29849;DHT22;16728;50.832;5.590;2023-05-14T10:57:58;18.60;99.90
29849;DHT22;16728;50.832;5.590;2023-05-14T11:01:01;18.70;99.90
29849;DHT22;16728;50.832;5.590;2023-05-14T11:04:04;18.70;99.90
29849;DHT22;16728;50.832;5.590;2023-05-14T11:07:09;18.90;99.90
29849;DHT22;16728;50.832;5.590;2023-05-14T11:10:19;18.90;99.90
29849;DHT22;16728;50.832;5.590;2023-05-14T11:13:25;19.00;99.90
29849;DHT22;16728;50.832;5.590;2023-05-14T11:16:27;19.10;99.90
29849;DHT22;16728;50.832;5.590;2023-05-14T11:19:32;19.20;99.90
29849;DHT22;16728;50.832;5.590;2023-05-14T11:22:35;19.30;99.90
29849;DHT22;16728;50.832;5.590;2023-05-14T11:25:43;19.30;99.90
29849;DHT22;16728;50.832;5.590;2023-05-14T11:28:46;19.40;99.90
29849;DHT22;16728;50.832;5.590;2023-05-14T11:31:49;19.30;99.90
29849;DHT22;16728;50.832;5.590;2023-05-14T11:34:51;19.20;99.90
29849;DHT22;16728;50.832;5.590;2023-05-14T11:37:53;19.20;99.90
29849;DHT22;16728;50.832;5.590;2023-05-14T11:40:57;19.10;99.90
29849;DHT22;16728;50.832;5.590;2023-05-14T11:44:02;19.00;99.90
29849;DHT22;16728;50.832;5.590;2023-05-14T11:47:04;19.10;99.90
29849;DHT22;16728;50.832;5.590;2023-05-14T11:50:13;19.10;99.90
29849;DHT22;16728;50.832;5.590;2023-05-14T11:53:18;19.10;99.90
29849;DHT22;16728;50.832;5.590;2023-05-14T11:56:21;19.10;99.90
29849;DHT22;16728;50.832;5.590;2023-05-14T11:59:41;19.20;99.90
29849;DHT22;16728;50.832;5.590;2023-05-14T12:02:43;19.20;99.90
29849;DHT22;16728;50.832;5.590;2023-05-14T12:06:00;19.20;99.90
29849;DHT22;16728;50.832;5.590;2023-05-14T12:09:04;19.10;99.90
29849;DHT22;16728;50.832;5.590;2023-05-14T12:12:10;19.10;99.90
29849;DHT22;16728;50.832;5.590;2023-05-14T12:15:15;18.90;99.90
29849;DHT22;16728;50.832;5.590;2023-05-14T12:18:17;18.90;99.90
29849;DHT22;16728;50.832;5.590;2023-05-14T12:21:26;18.80;99.90
29849;DHT22;16728;50.832;5.590;2023-05-14T12:24:28;18.70;99.90
29849;DHT22;16728;50.832;5.590;2023-05-14T12:27:36;18.70;99.90
29849;DHT22;16728;50.832;5.590;2023-05-14T12:30:38;18.70;99.90
29849;DHT22;16728;50.832;5.590;2023-05-14T12:33:41;18.60;99.90
29849;DHT22;16728;50.832;5.590;2023-05-14T12:36:43;18.60;99.90
29849;DHT22;16728;50.832;5.590;2023-05-14T12:39:45;18.70;99.90
29849;DHT22;16728;50.832;5.590;2023-05-14T12:42:47;18.80;99.90
29849;DHT22;16728;50.832;5.590;2023-05-14T12:45:49;18.90;99.90
29849;DHT22;16728;50.832;5.590;2023-05-14T12:48:52;19.00;99.90
29849;DHT22;16728;50.832;5.590;2023-05-14T12:51:54;19.10;99.90
29849;DHT22;16728;50.832;5.590;2023-05-14T12:55:15;19.20;99.90
29849;DHT22;16728;50.832;5.590;2023-05-14T12:58:17;19.40;99.90
29849;DHT22;16728;50.832;5.590;2023-05-14T13:01:19;19.40;99.90
29849;DHT22;16728;50.832;5.590;2023-05-14T13:04:22;19.40;99.90
29849;DHT22;16728;50.832;5.590;2023-05-14T13:07:24;19.50;99.90
29849;DHT22;16728;50.832;5.590;2023-05-14T13:10:26;19.50;99.90
29849;DHT22;16728;50.832;5.590;2023-05-14T13:13:28;19.60;99.90
29849;DHT22;16728;50.832;5.590;2023-05-14T13:17:00;19.70;99.90
29849;DHT22;16728;50.832;5.590;2023-05-14T13:20:05;19.70;99.90
29849;DHT22;16728;50.832;5.590;2023-05-14T13:23:08;19.70;99.90
29849;DHT22;16728;50.832;5.590;2023-05-14T13:26:09;19.80;99.90
29849;DHT22;16728;50.832;5.590;2023-05-14T13:29:12;19.90;99.90
29849;DHT22;16728;50.832;5.590;2023-05-14T13:32:14;20.00;99.90
29849;DHT22;16728;50.832;5.590;2023-05-14T13:35:16;20.10;99.90
29849;DHT22;16728;50.832;5.590;2023-05-14T13:38:18;20.00;99.90
29849;DHT22;16728;50.832;5.590;2023-05-14T13:41:20;19.80;99.90
29849;DHT22;16728;50.832;5.590;2023-05-14T13:44:22;19.80;99.90
29849;DHT22;16728;50.832;5.590;2023-05-14T13:47:24;19.80;99.90
29849;DHT22;16728;50.832;5.590;2023-05-14T13:50:26;19.70;99.90
29849;DHT22;16728;50.832;5.590;2023-05-14T13:53:33;19.60;99.90
29849;DHT22;16728;50.832;5.590;2023-05-14T13:56:35;19.50;99.90
29849;DHT22;16728;50.832;5.590;2023-05-14T13:59:41;19.40;99.90
29849;DHT22;16728;50.832;5.590;2023-05-14T14:02:45;19.30;99.90
29849;DHT22;16728;50.832;5.590;2023-05-14T14:05:47;19.30;99.90
29849;DHT22;16728;50.832;5.590;2023-05-14T14:08:49;19.30;99.90
29849;DHT22;16728;50.832;5.590;2023-05-14T14:11:52;19.10;99.90
29849;DHT22;16728;50.832;5.590;2023-05-14T14:14:54;19.10;99.90
29849;DHT22;16728;50.832;5.590;2023-05-14T14:17:56;19.00;99.90
29849;DHT22;16728;50.832;5.590;2023-05-14T14:20:58;18.90;99.90
29849;DHT22;16728;50.832;5.590;2023-05-14T14:24:05;18.80;99.90
29849;DHT22;16728;50.832;5.590;2023-05-14T14:27:07;18.80;99.90
29849;DHT22;16728;50.832;5.590;2023-05-14T14:30:11;18.80;99.90
29849;DHT22;16728;50.832;5.590;2023-05-14T14:33:16;18.70;99.90
29849;DHT22;16728;50.832;5.590;2023-05-14T14:36:19;18.80;99.90
29849;DHT22;16728;50.832;5.590;2023-05-14T14:39:21;18.80;99.90
29849;DHT22;16728;50.832;5.590;2023-05-14T14:42:25;18.90;99.90
29849;DHT22;16728;50.832;5.590;2023-05-14T14:45:30;18.90;99.90
29849;DHT22;16728;50.832;5.590;2023-05-14T14:48:33;19.00;99.90
29849;DHT22;16728;50.832;5.590;2023-05-14T14:51:38;19.10;99.90
29849;DHT22;16728;50.832;5.590;2023-05-14T14:54:41;19.10;99.90
29849;DHT22;16728;50.832;5.590;2023-05-14T14:57:43;19.10;99.90
29849;DHT22;16728;50.832;5.590;2023-05-14T15:00:59;19.00;99.90
29849;DHT22;16728;50.832;5.590;2023-05-14T15:04:02;19.00;99.90
29849;DHT22;16728;50.832;5.590;2023-05-14T15:07:04;19.00;99.90
29849;DHT22;16728;50.832;5.590;2023-05-14T15:10:07;19.00;99.90
29849;DHT22;16728;50.832;5.590;2023-05-14T15:13:09;19.00;99.90
29849;DHT22;16728;50.832;5.590;2023-05-14T15:16:11;19.10;99.90
29849;DHT22;16728;50.832;5.590;2023-05-14T15:19:14;19.00;99.90
29849;DHT22;16728;50.832;5.590;2023-05-14T15:22:16;19.00;99.90
29849;DHT22;16728;50.832;5.590;2023-05-14T15:25:19;19.10;99.90
29849;DHT22;16728;50.832;5.590;2023-05-14T15:28:22;19.10;99.90
29849;DHT22;16728;50.832;5.590;2023-05-14T15:31:25;19.10;99.90
29849;DHT22;16728;50.832;5.590;2023-05-14T15:34:27;19.10;99.90
29849;DHT22;16728;50.832;5.590;2023-05-14T15:37:39;19.20;99.90
29849;DHT22;16728;50.832;5.590;2023-05-14T15:40:41;19.10;99.90
29849;DHT22;16728;50.832;5.590;2023-05-14T15:43:44;19.10;99.90
29849;DHT22;16728;50.832;5.590;2023-05-14T15:46:45;19.00;99.90
29849;DHT22;16728;50.832;5.590;2023-05-14T15:49:47;19.00;99.90
29849;DHT22;16728;50.832;5.590;2023-05-14T15:52:50;19.00;99.90
29849;DHT22;16728;50.832;5.590;2023-05-14T15:55:52;19.00;99.90
29849;DHT22;16728;50.832;5.590;2023-05-14T15:58:59;19.00;99.90
29849;DHT22;16728;50.832;5.590;2023-05-14T16:02:01;19.00;99.90
29849;DHT22;16728;50.832;5.590;2023-05-14T16:05:09;19.00;99.90
29849;DHT22;16728;50.832;5.590;2023-05-14T16:08:11;18.90;99.90
29849;DHT22;16728;50.832;5.590;2023-05-14T16:11:13;19.00;99.90
29849;DHT22;16728;50.832;5.590;2023-05-14T16:14:15;19.00;99.90
29849;DHT22;16728;50.832;5.590;2023-05-14T16:17:18;19.00;99.90
29849;DHT22;16728;50.832;5.590;2023-05-14T16:20:20;19.00;99.90
29849;DHT22;16728;50.832;5.590;2023-05-14T16:23:24;19.00;99.90
29849;DHT22;16728;50.832;5.590;2023-05-14T16:26:26;19.00;99.90
29849;DHT22;16728;50.832;5.590;2023-05-14T16:29:28;18.90;99.90
29849;DHT22;16728;50.832;5.590;2023-05-14T16:32:29;19.00;99.90
29849;DHT22;16728;50.832;5.590;2023-05-14T16:35:32;19.00;99.90
29849;DHT22;16728;50.832;5.590;2023-05-14T16:38:38;19.00;99.90
29849;DHT22;16728;50.832;5.590;2023-05-14T16:42:00;19.00;99.90
29849;DHT22;16728;50.832;5.590;2023-05-14T16:45:03;19.00;99.90
29849;DHT22;16728;50.832;5.590;2023-05-14T16:48:05;19.00;99.90
29849;DHT22;16728;50.832;5.590;2023-05-14T16:51:07;18.90;99.90
29849;DHT22;16728;50.832;5.590;2023-05-14T16:54:10;18.90;99.90
29849;DHT22;16728;50.832;5.590;2023-05-14T16:57:12;18.80;99.90
29849;DHT22;16728;50.832;5.590;2023-05-14T17:00:22;18.80;99.90
29849;DHT22;16728;50.832;5.590;2023-05-14T17:03:24;18.80;99.90
29849;DHT22;16728;50.832;5.590;2023-05-14T17:06:26;18.70;99.90
29849;DHT22;16728;50.832;5.590;2023-05-14T17:09:27;18.70;99.90
29849;DHT22;16728;50.832;5.590;2023-05-14T17:12:29;18.70;99.90
29849;DHT22;16728;50.832;5.590;2023-05-14T17:15:32;18.70;99.90
29849;DHT22;16728;50.832;5.590;2023-05-14T17:19:28;18.60;99.90
29849;DHT22;16728;50.832;5.590;2023-05-14T17:22:44;18.50;99.90
29849;DHT22;16728;50.832;5.590;2023-05-14T17:25:46;18.50;99.90
29849;DHT22;16728;50.832;5.590;2023-05-14T17:28:49;18.40;99.90
29849;DHT22;16728;50.832;5.590;2023-05-14T17:31:51;18.40;99.90
29849;DHT22;16728;50.832;5.590;2023-05-14T17:34:58;18.40;99.90
29849;DHT22;16728;50.832;5.590;2023-05-14T17:38:00;18.40;99.90
29849;DHT22;16728;50.832;5.590;2023-05-14T17:41:03;18.40;99.90
29849;DHT22;16728;50.832;5.590;2023-05-14T17:44:08;18.40;99.90
29849;DHT22;16728;50.832;5.590;2023-05-14T17:47:13;18.40;99.90
29849;DHT22;16728;50.832;5.590;2023-05-14T17:50:15;18.30;99.90
29849;DHT22;16728;50.832;5.590;2023-05-14T17:53:18;18.30;99.90
29849;DHT22;16728;50.832;5.590;2023-05-14T17:56:20;18.20;99.90
29849;DHT22;16728;50.832;5.590;2023-05-14T17:59:23;18.20;99.90
29849;DHT22;16728;50.832;5.590;2023-05-14T18:02:30;18.20;99.90
29849;DHT22;16728;50.832;5.590;2023-05-14T18:05:35;18.10;99.90
29849;DHT22;16728;50.832;5.590;2023-05-14T18:08:37;18.00;99.90
29849;DHT22;16728;50.832;5.590;2023-05-14T18:11:39;18.00;99.90
29849;DHT22;16728;50.832;5.590;2023-05-14T18:14:41;17.90;99.90
29849;DHT22;16728;50.832;5.590;2023-05-14T18:17:46;17.80;99.90
29849;DHT22;16728;50.832;5.590;2023-05-14T18:20:49;17.80;99.90
29849;DHT22;16728;50.832;5.590;2023-05-14T18:23:52;17.80;99.90
29849;DHT22;16728;50.832;5.590;2023-05-14T18:26:54;17.80;99.90
29849;DHT22;16728;50.832;5.590;2023-05-14T18:29:56;17.80;99.90
29849;DHT22;16728;50.832;5.590;2023-05-14T18:32:58;17.80;99.90
29849;DHT22;16728;50.832;5.590;2023-05-14T18:36:00;17.70;99.90
29849;DHT22;16728;50.832;5.590;2023-05-14T18:39:02;17.70;99.90
29849;DHT22;16728;50.832;5.590;2023-05-14T18:42:09;17.70;99.90
29849;DHT22;16728;50.832;5.590;2023-05-14T18:45:11;17.70;99.90
29849;DHT22;16728;50.832;5.590;2023-05-14T18:48:13;17.70;99.90
29849;DHT22;16728;50.832;5.590;2023-05-14T18:51:16;17.60;99.90
29849;DHT22;16728;50.832;5.590;2023-05-14T18:54:20;17.70;99.90
29849;DHT22;16728;50.832;5.590;2023-05-14T18:57:22;17.60;99.90
29849;DHT22;16728;50.832;5.590;2023-05-14T19:00:24;17.60;99.90
29849;DHT22;16728;50.832;5.590;2023-05-14T19:03:26;17.50;99.90
29849;DHT22;16728;50.832;5.590;2023-05-14T19:06:28;17.60;99.90
29849;DHT22;16728;50.832;5.590;2023-05-14T19:09:30;17.50;99.90
29849;DHT22;16728;50.832;5.590;2023-05-14T19:12:32;17.60;99.90
29849;DHT22;16728;50.832;5.590;2023-05-14T19:15:34;17.50;99.90
29849;DHT22;16728;50.832;5.590;2023-05-14T19:18:36;17.60;99.90
29849;DHT22;16728;50.832;5.590;2023-05-14T19:21:37;17.70;99.90
29849;DHT22;16728;50.832;5.590;2023-05-14T19:24:39;17.70;99.90
29849;DHT22;16728;50.832;5.590;2023-05-14T19:27:41;17.60;99.90
29849;DHT22;16728;50.832;5.590;2023-05-14T19:30:44;17.60;99.90